sensor_id;sensor_type;location;lat;lon;timestamp;pressure;altitude;pressure_sealevel;temperature;humidity
45467;BME280;31212;49.734;8.490;2022-09-02T00:01:58;100406.38;;;16.74;64.74
45467;BME280;31212;49.734;8.490;2022-09-02T00:04:26;100420.31;;;16.78;65.40
45467;BME280;31212;49.734;8.490;2022-09-02T00:06:53;100414.53;;;16.62;65.39
45467;BME280;31212;49.734;8.490;2022-09-02T00:09:23;100410.13;;;16.62;65.48
45467;BME280;31212;49.734;8.490;2022-09-02T00:11:51;100398.19;;;16.51;65.26
45467;BME280;31212;49.734;8.490;2022-09-02T00:14:21;100401.81;;;16.43;65.32
45467;BME280;31212;49.734;8.490;2022-09-02T00:16:49;100411.31;;;16.49;65.66
45467;BME280;31212;49.734;8.490;2022-09-02T00:19:17;100412.22;;;16.46;66.03
45467;BME280;31212;49.734;8.490;2022-09-02T00:21:44;100420.53;;;16.26;66.11
45467;BME280;31212;49.734;8.490;2022-09-02T00:24:11;100428.22;;;16.34;66.50
45467;BME280;31212;49.734;8.490;2022-09-02T00:26:37;100422.00;;;16.38;66.03
45467;BME280;31212;49.734;8.490;2022-09-02T00:29:04;100428.97;;;16.39;66.59
45467;BME280;31212;49.734;8.490;2022-09-02T00:31:32;100411.72;;;16.30;66.31
45467;BME280;31212;49.734;8.490;2022-09-02T00:34:03;100418.75;;;16.27;66.12
45467;BME280;31212;49.734;8.490;2022-09-02T00:36:29;100418.88;;;16.22;66.75
45467;BME280;31212;49.734;8.490;2022-09-02T00:38:56;100424.00;;;16.27;66.67
45467;BME280;31212;49.734;8.490;2022-09-02T00:41:25;100430.25;;;16.20;66.78
45467;BME280;31212;49.734;8.490;2022-09-02T00:43:54;100432.84;;;16.21;67.37
45467;BME280;31212;49.734;8.490;2022-09-02T00:46:22;100433.03;;;16.12;67.48
45467;BME280;31212;49.734;8.490;2022-09-02T00:48:54;100441.84;;;16.08;67.39
45467;BME280;31212;49.734;8.490;2022-09-02T00:51:24;100449.75;;;16.03;67.90
45467;BME280;31212;49.734;8.490;2022-09-02T00:53:52;100453.34;;;15.99;68.21
45467;BME280;31212;49.734;8.490;2022-09-02T00:56:21;100446.56;;;15.89;68.16
45467;BME280;31212;49.734;8.490;2022-09-02T00:58:49;100441.28;;;15.90;67.89
45467;BME280;31212;49.734;8.490;2022-09-02T01:01:17;100443.00;;;15.93;67.93
45467;BME280;31212;49.734;8.490;2022-09-02T01:03:44;100429.84;;;15.96;67.31
45467;BME280;31212;49.734;8.490;2022-09-02T01:06:11;100425.44;;;15.98;67.60
45467;BME280;31212;49.734;8.490;2022-09-02T01:08:45;100423.06;;;15.84;67.88
45467;BME280;31212;49.734;8.490;2022-09-02T01:11:12;100438.84;;;15.79;68.01
45467;BME280;31212;49.734;8.490;2022-09-02T01:13:43;100437.94;;;15.82;68.28
45467;BME280;31212;49.734;8.490;2022-09-02T01:16:18;100444.94;;;15.78;68.32
45467;BME280;31212;49.734;8.490;2022-09-02T01:18:49;100448.34;;;15.85;68.41
45467;BME280;31212;49.734;8.490;2022-09-02T01:21:17;100458.97;;;15.74;68.62
45467;BME280;31212;49.734;8.490;2022-09-02T01:23:45;100468.69;;;15.68;69.51
45467;BME280;31212;49.734;8.490;2022-09-02T01:26:13;100475.59;;;15.72;69.57
45467;BME280;31212;49.734;8.490;2022-09-02T01:28:39;100465.94;;;15.75;69.75
45467;BME280;31212;49.734;8.490;2022-09-02T01:31:06;100472.09;;;15.73;69.44
45467;BME280;31212;49.734;8.490;2022-09-02T01:33:33;100466.16;;;15.61;69.63
45467;BME280;31212;49.734;8.490;2022-09-02T01:36:00;100481.06;;;15.58;69.89
45467;BME280;31212;49.734;8.490;2022-09-02T01:38:30;100470.66;;;15.53;69.86
45467;BME280;31212;49.734;8.490;2022-09-02T01:40:58;100477.63;;;15.54;70.14
45467;BME280;31212;49.734;8.490;2022-09-02T01:43:26;100491.88;;;15.36;71.03
45467;BME280;31212;49.734;8.490;2022-09-02T01:45:56;100492.00;;;15.28;71.17
45467;BME280;31212;49.734;8.490;2022-09-02T01:48:26;100499.13;;;15.19;71.47
45467;BME280;31212;49.734;8.490;2022-09-02T01:50:56;100482.63;;;15.13;71.25
45467;BME280;31212;49.734;8.490;2022-09-02T01:53:23;100485.31;;;15.09;71.38
45467;BME280;31212;49.734;8.490;2022-09-02T01:55:51;100496.69;;;15.05;72.02
45467;BME280;31212;49.734;8.490;2022-09-02T01:58:20;100507.25;;;14.97;72.40
45467;BME280;31212;49.734;8.490;2022-09-02T02:00:48;100508.16;;;14.94;72.67
45467;BME280;31212;49.734;8.490;2022-09-02T02:03:15;100514.28;;;14.93;72.91
45467;BME280;31212;49.734;8.490;2022-09-02T02:05:42;100518.66;;;14.90;73.29
45467;BME280;31212;49.734;8.490;2022-09-02T02:08:10;100516.06;;;14.88;73.34
45467;BME280;31212;49.734;8.490;2022-09-02T02:10:39;100521.31;;;14.88;73.42
45467;BME280;31212;49.734;8.490;2022-09-02T02:13:07;100509.91;;;14.94;73.38
45467;BME280;31212;49.734;8.490;2022-09-02T02:15:37;100509.97;;;14.89;73.32
45467;BME280;31212;49.734;8.490;2022-09-02T02:18:04;100499.50;;;14.91;73.26
45467;BME280;31212;49.734;8.490;2022-09-02T02:20:31;100509.91;;;14.94;73.48
45467;BME280;31212;49.734;8.490;2022-09-02T02:22:58;100505.66;;;14.87;73.45
45467;BME280;31212;49.734;8.490;2022-09-02T02:25:25;100512.59;;;14.89;73.68
45467;BME280;31212;49.734;8.490;2022-09-02T02:27:53;100523.91;;;14.88;74.12
45467;BME280;31212;49.734;8.490;2022-09-02T02:30:20;100529.13;;;14.91;74.67
45467;BME280;31212;49.734;8.490;2022-09-02T02:32:50;100529.03;;;14.97;74.47
45467;BME280;31212;49.734;8.490;2022-09-02T02:35:19;100512.38;;;15.03;73.97
45467;BME280;31212;49.734;8.490;2022-09-02T02:37:47;100506.16;;;15.13;74.03
45467;BME280;31212;49.734;8.490;2022-09-02T02:40:16;100497.41;;;15.16;73.60
45467;BME280;31212;49.734;8.490;2022-09-02T02:42:47;100494.56;;;15.31;73.04
45467;BME280;31212;49.734;8.490;2022-09-02T02:45:15;100486.41;;;15.52;72.57
45467;BME280;31212;49.734;8.490;2022-09-02T02:47:42;100463.69;;;15.54;71.81
45467;BME280;31212;49.734;8.490;2022-09-02T02:50:15;100453.16;;;15.58;71.60
45467;BME280;31212;49.734;8.490;2022-09-02T02:52:42;100444.66;;;15.45;71.40
45467;BME280;31212;49.734;8.490;2022-09-02T02:55:11;100473.50;;;15.39;72.24
45467;BME280;31212;49.734;8.490;2022-09-02T02:57:39;100483.16;;;15.36;72.77
45467;BME280;31212;49.734;8.490;2022-09-02T03:00:10;100478.81;;;15.36;72.85
45467;BME280;31212;49.734;8.490;2022-09-02T03:02:38;100483.22;;;15.33;72.96
45467;BME280;31212;49.734;8.490;2022-09-02T03:07:59;100511.91;;;14.73;74.40
45467;BME280;31212;49.734;8.490;2022-09-02T03:10:26;100518.13;;;14.65;75.02
45467;BME280;31212;49.734;8.490;2022-09-02T05:34:03;100543.72;;;13.09;82.86
45467;BME280;31212;49.734;8.490;2022-09-02T05:36:30;100536.63;;;13.34;81.49
45467;BME280;31212;49.734;8.490;2022-09-02T05:38:58;100513.00;;;13.59;80.77
45467;BME280;31212;49.734;8.490;2022-09-02T05:41:26;100489.53;;;13.59;79.28
45467;BME280;31212;49.734;8.490;2022-09-02T05:43:59;100478.97;;;13.76;78.82
45467;BME280;31212;49.734;8.490;2022-09-02T05:46:27;100457.06;;;13.91;77.88
45467;BME280;31212;49.734;8.490;2022-09-02T05:48:55;100435.94;;;14.14;77.27
45467;BME280;31212;49.734;8.490;2022-09-02T05:51:42;100414.66;;;14.46;75.96
45467;BME280;31212;49.734;8.490;2022-09-02T05:54:12;100391.00;;;14.57;74.59
45467;BME280;31212;49.734;8.490;2022-09-02T05:56:41;100373.19;;;14.87;73.58
45467;BME280;31212;49.734;8.490;2022-09-02T05:59:08;100341.00;;;15.38;72.24
45467;BME280;31212;49.734;8.490;2022-09-02T06:01:36;100310.34;;;15.92;70.37
45467;BME280;31212;49.734;8.490;2022-09-02T06:04:05;100261.47;;;16.31;68.76
45467;BME280;31212;49.734;8.490;2022-09-02T06:06:33;100243.28;;;16.63;67.41
45467;BME280;31212;49.734;8.490;2022-09-02T06:09:04;100196.31;;;16.88;65.99
45467;BME280;31212;49.734;8.490;2022-09-02T06:11:33;100166.34;;;17.30;64.28
45467;BME280;31212;49.734;8.490;2022-09-02T06:14:02;100132.38;;;17.55;63.13
45467;BME280;31212;49.734;8.490;2022-09-02T06:16:34;100136.53;;;18.19;61.74
45467;BME280;31212;49.734;8.490;2022-09-02T06:19:02;100089.53;;;19.11;59.66
45467;BME280;31212;49.734;8.490;2022-09-02T06:21:29;100051.41;;;19.89;57.62
45467;BME280;31212;49.734;8.490;2022-09-02T06:23:57;100013.22;;;20.41;55.43
45467;BME280;31212;49.734;8.490;2022-09-02T06:26:25;99941.53;;;21.45;52.53
45467;BME280;31212;49.734;8.490;2022-09-02T06:28:52;99929.38;;;22.29;51.02
45467;BME280;31212;49.734;8.490;2022-09-02T06:31:21;99901.00;;;22.32;49.54
45467;BME280;31212;49.734;8.490;2022-09-02T06:33:51;99906.75;;;23.05;48.60
45467;BME280;31212;49.734;8.490;2022-09-02T06:36:20;99870.50;;;23.05;47.58
45467;BME280;31212;49.734;8.490;2022-09-02T06:38:51;99836.59;;;24.01;45.68
45467;BME280;31212;49.734;8.490;2022-09-02T06:41:20;99841.25;;;23.98;45.58
45467;BME280;31212;49.734;8.490;2022-09-02T06:43:51;99813.31;;;24.07;44.87
45467;BME280;31212;49.734;8.490;2022-09-02T06:46:23;99788.25;;;24.25;43.88
45467;BME280;31212;49.734;8.490;2022-09-02T06:48:52;99752.28;;;25.16;42.23
45467;BME280;31212;49.734;8.490;2022-09-02T06:51:23;99757.56;;;25.93;41.53
45467;BME280;31212;49.734;8.490;2022-09-02T06:53:52;99764.09;;;26.75;40.72
45467;BME280;31212;49.734;8.490;2022-09-02T06:56:21;99699.94;;;27.13;38.89
45467;BME280;31212;49.734;8.490;2022-09-02T06:58:48;99733.88;;;28.13;38.58
45467;BME280;31212;49.734;8.490;2022-09-02T07:01:21;99684.84;;;26.78;38.95
45467;BME280;31212;49.734;8.490;2022-09-02T07:03:49;99756.03;;;27.34;39.07
45467;BME280;31212;49.734;8.490;2022-09-02T07:06:39;99733.44;;;27.63;38.37
45467;BME280;31212;49.734;8.490;2022-09-02T07:09:08;99691.25;;;28.23;37.02
45467;BME280;31212;49.734;8.490;2022-09-02T07:11:36;99667.03;;;28.90;35.93
45467;BME280;31212;49.734;8.490;2022-09-02T07:14:04;99669.13;;;28.65;36.00
45467;BME280;31212;49.734;8.490;2022-09-02T07:16:34;99712.25;;;29.24;35.77
45467;BME280;31212;49.734;8.490;2022-09-02T07:19:02;99676.13;;;29.08;35.43
45467;BME280;31212;49.734;8.490;2022-09-02T07:21:30;99704.59;;;28.56;36.18
45467;BME280;31212;49.734;8.490;2022-09-02T07:23:58;99643.56;;;28.93;34.88
45467;BME280;31212;49.734;8.490;2022-09-02T07:26:25;99619.44;;;28.20;35.20
45467;BME280;31212;49.734;8.490;2022-09-02T07:28:53;99724.63;;;29.46;35.31
45467;BME280;31212;49.734;8.490;2022-09-02T07:31:21;99649.19;;;30.51;33.23
45467;BME280;31212;49.734;8.490;2022-09-02T07:33:50;99619.66;;;31.28;32.20
45467;BME280;31212;49.734;8.490;2022-09-02T07:36:16;99558.63;;;28.87;33.60
45467;BME280;31212;49.734;8.490;2022-09-02T07:38:46;99591.13;;;30.03;32.83
45467;BME280;31212;49.734;8.490;2022-09-02T07:41:13;99536.84;;;31.43;30.58
45467;BME280;31212;49.734;8.490;2022-09-02T07:43:40;99513.66;;;30.68;31.21
45467;BME280;31212;49.734;8.490;2022-09-02T07:46:08;99511.16;;;31.23;30.58
45467;BME280;31212;49.734;8.490;2022-09-02T07:48:35;99389.75;;;28.83;31.13
45467;BME280;31212;49.734;8.490;2022-09-02T07:51:03;99508.63;;;30.56;30.85
45467;BME280;31212;49.734;8.490;2022-09-02T07:53:31;99487.38;;;31.10;30.25
45467;BME280;31212;49.734;8.490;2022-09-02T07:55:59;99475.16;;;28.64;32.13
45467;BME280;31212;49.734;8.490;2022-09-02T07:58:27;99501.81;;;31.45;29.89
45467;BME280;31212;49.734;8.490;2022-09-02T08:00:54;99519.69;;;29.84;31.51
45467;BME280;31212;49.734;8.490;2022-09-02T08:03:23;99470.28;;;31.39;29.49
45467;BME280;31212;49.734;8.490;2022-09-02T08:05:53;99538.31;;;32.54;29.31
45467;BME280;31212;49.734;8.490;2022-09-02T08:08:22;99478.53;;;32.52;28.44
45467;BME280;31212;49.734;8.490;2022-09-02T08:10:50;99449.03;;;32.68;27.69
45467;BME280;31212;49.734;8.490;2022-09-02T08:13:19;99440.59;;;32.20;28.31
45467;BME280;31212;49.734;8.490;2022-09-02T08:15:46;99433.19;;;32.49;27.58
45467;BME280;31212;49.734;8.490;2022-09-02T08:18:13;99447.63;;;29.92;30.40
45467;BME280;31212;49.734;8.490;2022-09-02T08:20:40;99425.34;;;32.29;27.32
45467;BME280;31212;49.734;8.490;2022-09-02T08:23:07;99424.94;;;32.93;26.87
45467;BME280;31212;49.734;8.490;2022-09-02T08:25:35;99413.66;;;31.86;27.53
45467;BME280;31212;49.734;8.490;2022-09-02T08:28:02;99410.63;;;32.76;26.79
45467;BME280;31212;49.734;8.490;2022-09-02T08:30:29;99404.97;;;33.04;26.56
45467;BME280;31212;49.734;8.490;2022-09-02T08:32:56;99440.78;;;33.13;26.57
45467;BME280;31212;49.734;8.490;2022-09-02T08:35:22;99318.88;;;33.78;24.71
45467;BME280;31212;49.734;8.490;2022-09-02T08:37:49;99416.81;;;33.85;25.84
45467;BME280;31212;49.734;8.490;2022-09-02T08:40:17;99450.75;;;34.67;25.73
45467;BME280;31212;49.734;8.490;2022-09-02T08:42:48;99310.97;;;34.33;24.20
45467;BME280;31212;49.734;8.490;2022-09-02T08:45:21;99252.69;;;34.00;23.86
45467;BME280;31212;49.734;8.490;2022-09-02T08:48:01;99286.59;;;33.86;24.09
45467;BME280;31212;49.734;8.490;2022-09-02T08:50:30;99296.94;;;33.25;24.80
45467;BME280;31212;49.734;8.490;2022-09-02T08:53:02;99314.41;;;32.80;25.23
45467;BME280;31212;49.734;8.490;2022-09-02T08:55:38;99381.78;;;32.95;26.05
45467;BME280;31212;49.734;8.490;2022-09-02T08:58:10;99393.66;;;32.76;26.10
45467;BME280;31212;49.734;8.490;2022-09-02T09:00:41;99362.63;;;32.90;25.31
45467;BME280;31212;49.734;8.490;2022-09-02T09:03:17;99325.16;;;33.62;24.21
45467;BME280;31212;49.734;8.490;2022-09-02T09:05:53;99387.84;;;34.52;24.19
45467;BME280;31212;49.734;8.490;2022-09-02T09:08:28;99273.72;;;33.08;23.96
45467;BME280;31212;49.734;8.490;2022-09-02T09:11:00;99356.13;;;33.25;24.56
45467;BME280;31212;49.734;8.490;2022-09-02T09:14:04;99280.06;;;32.49;24.41
45467;BME280;31212;49.734;8.490;2022-09-02T09:16:38;99351.19;;;32.96;24.61
45467;BME280;31212;49.734;8.490;2022-09-02T09:19:06;99283.47;;;33.42;23.62
45467;BME280;31212;49.734;8.490;2022-09-02T09:21:34;99321.03;;;33.99;23.56
45467;BME280;31212;49.734;8.490;2022-09-02T09:24:05;99265.28;;;33.52;23.08
45467;BME280;31212;49.734;8.490;2022-09-02T09:26:37;99229.81;;;32.33;23.90
45467;BME280;31212;49.734;8.490;2022-09-02T09:29:06;99240.91;;;31.87;24.27
45467;BME280;31212;49.734;8.490;2022-09-02T09:31:34;99266.13;;;31.42;24.68
45467;BME280;31212;49.734;8.490;2022-09-02T09:34:04;99204.00;;;31.89;23.27
45467;BME280;31212;49.734;8.490;2022-09-02T09:36:48;99239.59;;;30.68;24.67
45467;BME280;31212;49.734;8.490;2022-09-02T09:39:20;99184.81;;;31.76;23.16
45467;BME280;31212;49.734;8.490;2022-09-02T09:41:48;99108.13;;;30.25;23.44
45467;BME280;31212;49.734;8.490;2022-09-02T09:44:35;99207.13;;;31.42;23.27
45467;BME280;31212;49.734;8.490;2022-09-02T09:47:05;99156.50;;;30.86;23.08
45467;BME280;31212;49.734;8.490;2022-09-02T09:49:33;99225.41;;;31.20;23.54
45467;BME280;31212;49.734;8.490;2022-09-02T09:51:59;99139.59;;;30.67;23.08
45467;BME280;31212;49.734;8.490;2022-09-02T09:54:26;99193.00;;;31.31;23.09
45467;BME280;31212;49.734;8.490;2022-09-02T09:56:54;99197.63;;;31.21;23.47
45467;BME280;31212;49.734;8.490;2022-09-02T09:59:36;99146.66;;;30.95;23.31
45467;BME280;31212;49.734;8.490;2022-09-02T10:02:12;99149.78;;;31.08;23.33
45467;BME280;31212;49.734;8.490;2022-09-02T10:04:44;99201.66;;;31.94;22.76
45467;BME280;31212;49.734;8.490;2022-09-02T10:07:11;99167.47;;;31.27;22.83
45467;BME280;31212;49.734;8.490;2022-09-02T10:09:38;99199.72;;;30.19;24.68
45467;BME280;31212;49.734;8.490;2022-09-02T10:12:06;99252.22;;;31.20;23.87
45467;BME280;31212;49.734;8.490;2022-09-02T10:14:37;99244.19;;;31.73;23.82
45467;BME280;31212;49.734;8.490;2022-09-02T10:17:25;99247.78;;;31.90;23.52
45467;BME280;31212;49.734;8.490;2022-09-02T10:19:57;99207.47;;;30.22;24.83
45467;BME280;31212;49.734;8.490;2022-09-02T10:22:43;99210.50;;;31.44;23.39
45467;BME280;31212;49.734;8.490;2022-09-02T10:25:22;99262.69;;;31.58;23.83
45467;BME280;31212;49.734;8.490;2022-09-02T10:27:58;99225.78;;;31.25;23.55
45467;BME280;31212;49.734;8.490;2022-09-02T10:30:30;99231.34;;;32.44;22.68
45467;BME280;31212;49.734;8.490;2022-09-02T10:33:14;99229.72;;;31.39;23.92
45467;BME280;31212;49.734;8.490;2022-09-02T10:35:46;99243.97;;;32.51;22.72
45467;BME280;31212;49.734;8.490;2022-09-02T10:38:32;99235.41;;;33.14;22.33
45467;BME280;31212;49.734;8.490;2022-09-02T10:41:09;99253.53;;;33.45;22.25
45467;BME280;31212;49.734;8.490;2022-09-02T10:43:52;99188.72;;;34.34;21.18
45467;BME280;31212;49.734;8.490;2022-09-02T10:46:24;99246.50;;;32.78;22.94
45467;BME280;31212;49.734;8.490;2022-09-02T10:48:59;99243.16;;;33.25;22.73
45467;BME280;31212;49.734;8.490;2022-09-02T10:51:37;99216.59;;;33.70;21.79
45467;BME280;31212;49.734;8.490;2022-09-02T10:54:19;99228.94;;;33.56;22.37
45467;BME280;31212;49.734;8.490;2022-09-02T10:56:54;99189.63;;;33.47;22.13
45467;BME280;31212;49.734;8.490;2022-09-02T10:59:29;99172.22;;;33.18;21.91
45467;BME280;31212;49.734;8.490;2022-09-02T11:02:05;99181.13;;;32.44;22.57
45467;BME280;31212;49.734;8.490;2022-09-02T11:04:38;99162.22;;;32.70;22.41
45467;BME280;31212;49.734;8.490;2022-09-02T11:07:07;99179.59;;;34.35;21.02
45467;BME280;31212;49.734;8.490;2022-09-02T11:09:37;99164.03;;;35.07;20.45
45467;BME280;31212;49.734;8.490;2022-09-02T11:12:08;99136.28;;;34.45;20.61
45467;BME280;31212;49.734;8.490;2022-09-02T11:14:50;99171.34;;;33.17;22.49
45467;BME280;31212;49.734;8.490;2022-09-02T11:17:24;99160.34;;;31.70;23.22
45467;BME280;31212;49.734;8.490;2022-09-02T11:19:59;99179.50;;;31.23;23.86
45467;BME280;31212;49.734;8.490;2022-09-02T11:22:31;99173.06;;;31.08;24.08
45467;BME280;31212;49.734;8.490;2022-09-02T11:25:02;99211.81;;;30.23;25.00
45467;BME280;31212;49.734;8.490;2022-09-02T11:27:37;99178.00;;;28.91;26.01
45467;BME280;31212;49.734;8.490;2022-09-02T11:30:10;99254.75;;;29.09;26.57
45467;BME280;31212;49.734;8.490;2022-09-02T11:32:42;99241.72;;;29.53;25.84
45467;BME280;31212;49.734;8.490;2022-09-02T11:35:16;99230.34;;;29.89;25.24
45467;BME280;31212;49.734;8.490;2022-09-02T11:37:47;99265.81;;;29.91;25.66
45467;BME280;31212;49.734;8.490;2022-09-02T11:40:17;99267.28;;;29.75;25.92
45467;BME280;31212;49.734;8.490;2022-09-02T11:43:01;99201.09;;;30.05;25.12
45467;BME280;31212;49.734;8.490;2022-09-02T11:45:38;99235.63;;;30.26;24.94
45467;BME280;31212;49.734;8.490;2022-09-02T11:48:33;99211.78;;;30.33;25.04
45467;BME280;31212;49.734;8.490;2022-09-02T11:51:22;99155.59;;;29.87;24.29
45467;BME280;31212;49.734;8.490;2022-09-02T11:53:54;99148.31;;;29.42;24.93
45467;BME280;31212;49.734;8.490;2022-09-02T11:56:24;99251.84;;;29.97;25.37
45467;BME280;31212;49.734;8.490;2022-09-02T11:58:53;99246.28;;;29.70;25.55
45467;BME280;31212;49.734;8.490;2022-09-02T12:01:28;99143.91;;;29.78;24.71
45467;BME280;31212;49.734;8.490;2022-09-02T12:04:01;99148.72;;;29.47;24.59
45467;BME280;31212;49.734;8.490;2022-09-02T12:06:29;99158.34;;;30.13;24.32
45467;BME280;31212;49.734;8.490;2022-09-02T12:09:03;99243.09;;;30.68;25.17
45467;BME280;31212;49.734;8.490;2022-09-02T12:11:39;99146.69;;;29.86;24.46
45467;BME280;31212;49.734;8.490;2022-09-02T12:14:07;99167.09;;;29.22;25.01
45467;BME280;31212;49.734;8.490;2022-09-02T12:16:58;99159.53;;;29.55;24.63
45467;BME280;31212;49.734;8.490;2022-09-02T12:19:39;99158.66;;;29.82;24.28
45467;BME280;31212;49.734;8.490;2022-09-02T12:28:21;99333.25;;;30.96;25.52
45467;BME280;31212;49.734;8.490;2022-09-02T12:31:09;99161.56;;;30.97;23.69
45467;BME280;31212;49.734;8.490;2022-09-02T12:33:39;99167.59;;;31.17;23.57
45467;BME280;31212;49.734;8.490;2022-09-02T12:36:08;99133.69;;;30.82;23.38
45467;BME280;31212;49.734;8.490;2022-09-02T12:38:37;99147.34;;;31.23;23.38
45467;BME280;31212;49.734;8.490;2022-09-02T12:41:28;99144.41;;;30.82;23.45
45467;BME280;31212;49.734;8.490;2022-09-02T12:44:02;99138.81;;;30.75;23.39
45467;BME280;31212;49.734;8.490;2022-09-02T12:46:47;99150.25;;;31.03;23.78
45467;BME280;31212;49.734;8.490;2022-09-02T12:49:26;99130.78;;;31.01;23.10
45467;BME280;31212;49.734;8.490;2022-09-02T12:51:57;99172.69;;;31.63;23.02
45467;BME280;31212;49.734;8.490;2022-09-02T12:54:33;99146.25;;;31.77;23.16
45467;BME280;31212;49.734;8.490;2022-09-02T12:57:01;99194.25;;;31.53;24.06
45467;BME280;31212;49.734;8.490;2022-09-02T12:59:29;99175.50;;;31.96;23.62
45467;BME280;31212;49.734;8.490;2022-09-02T13:02:09;99154.31;;;29.81;25.37
45467;BME280;31212;49.734;8.490;2022-09-02T13:04:45;99199.09;;;31.15;24.28
45467;BME280;31212;49.734;8.490;2022-09-02T13:07:41;99140.75;;;30.65;24.20
45467;BME280;31212;49.734;8.490;2022-09-02T13:10:30;99186.34;;;31.86;23.54
45467;BME280;31212;49.734;8.490;2022-09-02T13:13:13;99145.88;;;31.63;23.78
45467;BME280;31212;49.734;8.490;2022-09-02T13:16:02;99159.06;;;31.91;23.23
45467;BME280;31212;49.734;8.490;2022-09-02T13:19:06;99132.16;;;31.66;23.70
45467;BME280;31212;49.734;8.490;2022-09-02T13:21:47;99125.91;;;32.83;22.11
45467;BME280;31212;49.734;8.490;2022-09-02T13:24:46;99079.75;;;33.11;21.60
45467;BME280;31212;49.734;8.490;2022-09-02T13:27:48;99081.94;;;32.18;22.32
45467;BME280;31212;49.734;8.490;2022-09-02T13:30:20;99080.22;;;32.58;22.09
45467;BME280;31212;49.734;8.490;2022-09-02T13:32:55;99064.41;;;32.63;22.04
45467;BME280;31212;49.734;8.490;2022-09-02T13:35:24;99080.84;;;31.69;22.90
45467;BME280;31212;49.734;8.490;2022-09-02T13:37:55;99121.06;;;33.34;22.09
45467;BME280;31212;49.734;8.490;2022-09-02T13:40:25;99101.94;;;33.21;21.93
45467;BME280;31212;49.734;8.490;2022-09-02T13:42:54;99014.69;;;32.76;21.21
45467;BME280;31212;49.734;8.490;2022-09-02T13:45:23;99060.69;;;32.89;21.72
45467;BME280;31212;49.734;8.490;2022-09-02T13:47:51;99058.56;;;31.77;22.98
45467;BME280;31212;49.734;8.490;2022-09-02T13:50:20;99023.56;;;33.32;21.04
45467;BME280;31212;49.734;8.490;2022-09-02T13:52:49;99024.53;;;33.40;21.06
45467;BME280;31212;49.734;8.490;2022-09-02T13:55:17;99017.00;;;33.35;20.96
45467;BME280;31212;49.734;8.490;2022-09-02T13:57:51;99020.81;;;32.03;22.14
45467;BME280;31212;49.734;8.490;2022-09-02T14:00:26;99054.69;;;32.54;21.95
45467;BME280;31212;49.734;8.490;2022-09-02T14:02:57;99044.03;;;33.02;21.53
45467;BME280;31212;49.734;8.490;2022-09-02T14:05:24;99063.69;;;34.20;20.86
45467;BME280;31212;49.734;8.490;2022-09-02T14:07:53;98997.59;;;33.94;20.42
45467;BME280;31212;49.734;8.490;2022-09-02T14:10:24;99005.63;;;33.79;20.54
45467;BME280;31212;49.734;8.490;2022-09-02T14:12:54;98967.28;;;34.15;20.05
45467;BME280;31212;49.734;8.490;2022-09-02T14:15:26;98970.16;;;32.25;21.84
45467;BME280;31212;49.734;8.490;2022-09-02T14:18:07;98983.09;;;32.86;21.29
45467;BME280;31212;49.734;8.490;2022-09-02T14:20:34;98992.47;;;33.21;21.15
45467;BME280;31212;49.734;8.490;2022-09-02T14:23:02;98995.56;;;33.73;20.60
45467;BME280;31212;49.734;8.490;2022-09-02T14:25:33;98971.44;;;33.33;20.73
45467;BME280;31212;49.734;8.490;2022-09-02T14:28:07;98944.84;;;33.39;20.89
45467;BME280;31212;49.734;8.490;2022-09-02T14:30:37;98950.47;;;33.52;20.69
45467;BME280;31212;49.734;8.490;2022-09-02T14:33:18;98933.31;;;34.44;19.73
45467;BME280;31212;49.734;8.490;2022-09-02T14:35:55;98934.63;;;33.57;20.45
45467;BME280;31212;49.734;8.490;2022-09-02T14:38:23;98919.28;;;33.11;20.75
45467;BME280;31212;49.734;8.490;2022-09-02T14:40:58;98907.22;;;33.07;20.86
45467;BME280;31212;49.734;8.490;2022-09-02T14:43:31;98906.78;;;32.95;20.87
45467;BME280;31212;49.734;8.490;2022-09-02T14:46:03;98896.81;;;32.73;20.86
45467;BME280;31212;49.734;8.490;2022-09-02T14:48:35;98896.00;;;32.64;21.05
45467;BME280;31212;49.734;8.490;2022-09-02T14:51:04;98913.44;;;32.68;21.06
45467;BME280;31212;49.734;8.490;2022-09-02T14:53:32;98920.72;;;33.22;20.67
45467;BME280;31212;49.734;8.490;2022-09-02T14:56:02;98864.31;;;32.51;20.68
45467;BME280;31212;49.734;8.490;2022-09-02T14:58:30;98902.72;;;31.95;21.70
45467;BME280;31212;49.734;8.490;2022-09-02T15:00:58;98928.50;;;32.29;21.66
45467;BME280;31212;49.734;8.490;2022-09-02T15:03:25;98947.34;;;31.80;22.43
45467;BME280;31212;49.734;8.490;2022-09-02T15:05:52;98907.59;;;32.16;21.46
45467;BME280;31212;49.734;8.490;2022-09-02T15:08:19;98925.84;;;32.29;21.57
45467;BME280;31212;49.734;8.490;2022-09-02T15:10:46;98914.31;;;32.60;21.12
45467;BME280;31212;49.734;8.490;2022-09-02T15:13:16;98954.88;;;33.13;21.17
45467;BME280;31212;49.734;8.490;2022-09-02T15:15:46;98909.19;;;32.82;21.13
45467;BME280;31212;49.734;8.490;2022-09-02T15:18:14;98889.84;;;32.47;21.25
45467;BME280;31212;49.734;8.490;2022-09-02T15:20:41;98903.22;;;32.07;21.55
45467;BME280;31212;49.734;8.490;2022-09-02T15:23:07;98899.69;;;32.23;21.56
45467;BME280;31212;49.734;8.490;2022-09-02T15:25:34;98866.03;;;31.46;21.90
45467;BME280;31212;49.734;8.490;2022-09-02T15:28:00;98871.44;;;30.44;22.93
45467;BME280;31212;49.734;8.490;2022-09-02T15:30:27;98908.56;;;30.05;23.34
45467;BME280;31212;49.734;8.490;2022-09-02T15:32:55;98916.84;;;30.46;23.19
45467;BME280;31212;49.734;8.490;2022-09-02T15:35:22;98916.31;;;30.85;22.99
45467;BME280;31212;49.734;8.490;2022-09-02T15:37:49;98942.34;;;30.32;23.29
45467;BME280;31212;49.734;8.490;2022-09-02T15:40:15;98888.47;;;29.56;23.77
45467;BME280;31212;49.734;8.490;2022-09-02T15:42:42;98933.03;;;29.92;23.66
45467;BME280;31212;49.734;8.490;2022-09-02T15:45:09;98937.53;;;30.09;23.32
45467;BME280;31212;49.734;8.490;2022-09-02T15:47:36;98943.44;;;29.77;23.63
45467;BME280;31212;49.734;8.490;2022-09-02T15:50:05;98966.63;;;29.86;23.82